createdAt,value
2023-06-24T00:01:30.911Z,99.99
2023-06-24T00:04:01.121Z,99.99
2023-06-24T00:06:31.285Z,99.99
2023-06-24T00:09:04.945Z,99.99
2023-06-24T00:11:35.162Z,99.99
2023-06-24T00:14:05.473Z,99.99
2023-06-24T00:16:35.638Z,99.99
2023-06-24T00:19:05.592Z,99.99
2023-06-24T00:21:35.752Z,99.99
2023-06-24T00:24:06.850Z,99.99
2023-06-24T00:26:36.885Z,99.99
2023-06-24T00:29:07.952Z,99.99
2023-06-24T00:31:38.323Z,99.99
2023-06-24T00:34:08.408Z,99.99
2023-06-24T00:36:41.110Z,99.99
2023-06-24T00:39:11.884Z,99.99
2023-06-24T00:41:42.427Z,99.99
2023-06-24T00:44:12.188Z,99.99
2023-06-24T00:46:42.818Z,99.99
2023-06-24T00:49:16.136Z,99.99
2023-06-24T00:51:49.628Z,99.99
2023-06-24T00:54:20.254Z,99.99
2023-06-24T00:56:50.892Z,99.99
2023-06-24T00:59:21.486Z,99.99
2023-06-24T01:01:55.260Z,99.99
2023-06-24T01:04:27.227Z,99.99
2023-06-24T01:06:59.402Z,99.99
2023-06-24T01:09:30.146Z,99.99
2023-06-24T01:12:00.334Z,99.99
2023-06-24T01:14:31.420Z,99.99
2023-06-24T01:17:26.262Z,99.99
2023-06-24T01:20:09.915Z,99.99
2023-06-24T01:23:08.845Z,99.99
2023-06-24T01:25:47.093Z,99.99
2023-06-24T01:28:40.496Z,99.99
2023-06-24T01:31:28.749Z,99.99
2023-06-24T01:34:10.065Z,99.99
2023-06-24T01:36:42.819Z,99.99
2023-06-24T01:39:19.686Z,99.99
2023-06-24T01:41:58.065Z,99.99
2023-06-24T01:44:30.969Z,99.99
2023-06-24T01:47:02.171Z,99.99
2023-06-24T01:49:35.825Z,99.99
2023-06-24T01:52:07.751Z,99.99
2023-06-24T01:54:40.058Z,99.99
2023-06-24T01:57:12.805Z,99.99
2023-06-24T01:59:46.086Z,99.99
2023-06-24T02:02:17.028Z,99.99
2023-06-24T02:04:48.084Z,99.99
2023-06-24T02:07:21.506Z,99.99
2023-06-24T02:09:53.916Z,99.99
2023-06-24T02:12:27.006Z,99.99
2023-06-24T02:14:58.692Z,99.99
2023-06-24T02:17:31.745Z,99.99
2023-06-24T02:20:02.827Z,99.99
2023-06-24T02:22:33.277Z,99.99
2023-06-24T02:25:04.014Z,99.99
2023-06-24T02:27:37.689Z,99.99
2023-06-24T02:30:09.210Z,99.99
2023-06-24T02:32:40.549Z,99.99
2023-06-24T02:35:11.224Z,99.99
2023-06-24T02:37:41.439Z,99.99
2023-06-24T02:40:12.735Z,99.99
2023-06-24T02:42:42.801Z,99.99
2023-06-24T02:45:13.517Z,99.99
2023-06-24T02:47:46.489Z,99.99
2023-06-24T02:50:17.391Z,99.99
2023-06-24T02:52:48.865Z,99.99
2023-06-24T02:55:22.198Z,99.99
2023-06-24T02:58:04.898Z,99.99
2023-06-24T03:00:47.495Z,99.99
2023-06-24T03:03:34.411Z,99.99
2023-06-24T03:06:05.301Z,99.99
2023-06-24T03:08:35.808Z,99.99
2023-06-24T03:11:05.454Z,99.99
2023-06-24T03:13:37.050Z,99.99
2023-06-24T03:16:19.196Z,99.99
2023-06-24T03:18:56.265Z,99.99
2023-06-24T03:21:30.740Z,99.99
2023-06-24T03:24:08.972Z,99.99
2023-06-24T03:26:45.248Z,99.99
2023-06-24T03:29:17.343Z,99.99
2023-06-24T03:32:10.744Z,99.99
2023-06-24T03:34:40.877Z,99.99
2023-06-24T03:37:13.201Z,99.99
2023-06-24T03:39:44.922Z,99.99
2023-06-24T03:42:15.450Z,99.99
2023-06-24T03:44:46.850Z,99.99
2023-06-24T03:47:17.088Z,99.99
2023-06-24T03:49:47.269Z,99.99
2023-06-24T03:52:17.316Z,99.99
2023-06-24T03:54:48.548Z,99.99
2023-06-24T03:57:18.691Z,99.99
2023-06-24T03:59:48.557Z,99.99
2023-06-24T04:02:19.835Z,99.99
2023-06-24T04:04:52.651Z,99.99
2023-06-24T04:07:29.556Z,99.99
2023-06-24T04:10:00.751Z,99.99
2023-06-24T04:12:30.866Z,99.99
2023-06-24T04:15:01.029Z,99.99
2023-06-24T04:17:31.727Z,99.99
2023-06-24T04:20:11.003Z,99.99
2023-06-24T04:22:44.679Z,99.99
2023-06-24T04:25:14.924Z,99.99
2023-06-24T04:27:45.183Z,99.99
2023-06-24T04:30:15.507Z,99.99
2023-06-24T04:32:46.118Z,99.99
2023-06-24T04:35:16.225Z,99.99
2023-06-24T04:37:46.363Z,99.99
2023-06-24T04:40:16.488Z,99.99
2023-06-24T04:42:46.931Z,99.99
2023-06-24T04:45:16.836Z,99.99
2023-06-24T04:47:46.986Z,99.99
2023-06-24T04:50:16.686Z,99.99
2023-06-24T04:52:47.111Z,99.99
2023-06-24T04:55:17.221Z,99.99
2023-06-24T04:57:47.193Z,99.99
2023-06-24T05:00:17.920Z,99.99
2023-06-24T05:02:48.079Z,99.99
2023-06-24T05:05:18.275Z,99.99
2023-06-24T05:07:48.596Z,99.99
2023-06-24T05:10:18.898Z,99.99
2023-06-24T05:12:48.902Z,99.99
2023-06-24T05:15:19.198Z,99.99
2023-06-24T05:17:50.794Z,99.99
2023-06-24T05:20:22.962Z,99.99
2023-06-24T05:22:53.374Z,99.99
2023-06-24T05:25:23.509Z,99.99
2023-06-24T05:27:53.852Z,99.99
2023-06-24T05:30:23.949Z,99.99
2023-06-24T05:32:54.112Z,99.99
2023-06-24T05:35:24.263Z,99.99
2023-06-24T05:37:54.473Z,99.99
2023-06-24T05:40:24.652Z,99.99
2023-06-24T05:42:55.075Z,99.99
2023-06-24T05:45:26.022Z,99.99
2023-06-24T05:47:56.185Z,99.99
2023-06-24T05:50:26.359Z,99.99
2023-06-24T05:52:56.505Z,99.99
2023-06-24T05:55:26.625Z,99.99
2023-06-24T05:57:56.796Z,99.99
2023-06-24T06:00:26.764Z,99.99
2023-06-24T06:02:56.928Z,99.99
2023-06-24T06:05:26.748Z,99.99
2023-06-24T06:07:56.688Z,99.99
2023-06-24T06:10:26.791Z,99.99
2023-06-24T06:12:56.743Z,99.99
2023-06-24T06:15:26.669Z,99.99
2023-06-24T06:17:56.680Z,99.99
2023-06-24T06:20:26.617Z,99.99
2023-06-24T06:22:56.522Z,99.99
2023-06-24T06:25:26.428Z,99.99
2023-06-24T06:27:56.578Z,99.99
2023-06-24T06:30:26.804Z,99.99
2023-06-24T06:32:57.069Z,99.99
2023-06-24T06:35:27.258Z,99.99
2023-06-24T06:37:57.383Z,99.99
2023-06-24T06:40:29.374Z,99.99
2023-06-24T06:42:59.981Z,99.99
2023-06-24T06:45:32.375Z,99.99
2023-06-24T06:48:02.842Z,99.99
2023-06-24T06:50:33.003Z,99.99
2023-06-24T06:53:03.609Z,99.99
2023-06-24T06:55:34.195Z,99.99
2023-06-24T06:58:04.856Z,99.99
2023-06-24T07:00:34.824Z,99.99
2023-06-24T07:03:04.817Z,99.99
2023-06-24T07:05:36.767Z,99.99
2023-06-24T07:08:08.841Z,99.99
2023-06-24T07:10:39.238Z,99.99
2023-06-24T07:13:09.297Z,99.99
2023-06-24T07:15:39.310Z,99.99
2023-06-24T07:18:09.501Z,99.99
2023-06-24T07:20:41.063Z,99.99
2023-06-24T07:23:13.127Z,99.99
2023-06-24T07:25:43.025Z,99.99
2023-06-24T07:28:13.325Z,99.99
2023-06-24T07:30:44.457Z,99.99
2023-06-24T07:33:14.700Z,99.99
2023-06-24T07:35:45.304Z,99.99
2023-06-24T07:38:16.340Z,99.99
2023-06-24T07:40:46.497Z,99.99
2023-06-24T07:43:17.359Z,99.99
2023-06-24T07:45:47.476Z,99.99
2023-06-24T07:48:17.644Z,99.99
2023-06-24T07:50:47.771Z,99.99
2023-06-24T07:53:17.746Z,99.99
2023-06-24T07:55:47.617Z,99.99
2023-06-24T07:58:17.562Z,99.99
2023-06-24T08:00:47.892Z,99.99
2023-06-24T08:03:19.300Z,99.99
2023-06-24T08:05:51.917Z,99.99
2023-06-24T08:08:23.302Z,99.99
2023-06-24T08:10:53.660Z,99.99
2023-06-24T08:13:24.075Z,99.99
2023-06-24T08:15:53.942Z,99.99
2023-06-24T08:18:24.258Z,99.99
2023-06-24T08:20:54.231Z,99.99
2023-06-24T08:23:24.640Z,99.99
2023-06-24T08:26:01.463Z,99.99
2023-06-24T08:29:04.479Z,99.99
2023-06-24T08:31:34.966Z,99.99
2023-06-24T08:34:05.388Z,99.99
2023-06-24T08:36:35.391Z,99.99
2023-06-24T08:39:08.132Z,99.99
2023-06-24T08:41:38.430Z,99.99
2023-06-24T08:44:09.091Z,99.99
2023-06-24T08:46:39.530Z,99.99
2023-06-24T08:49:27.505Z,99.99
2023-06-24T08:52:13.850Z,99.99
2023-06-24T08:54:48.261Z,99.99
2023-06-24T08:57:18.602Z,99.99
2023-06-24T08:59:49.271Z,99.99
2023-06-24T09:02:19.543Z,99.99
2023-06-24T09:04:49.817Z,99.99
2023-06-24T09:07:32.654Z,99.99
2023-06-24T09:10:04.067Z,99.99
2023-06-24T09:12:37.143Z,99.99
2023-06-24T09:15:07.817Z,99.99
2023-06-24T09:17:48.794Z,99.99
2023-06-24T09:20:22.521Z,99.99
2023-06-24T09:22:53.185Z,99.99
2023-06-24T09:25:23.400Z,99.99
2023-06-24T09:27:54.511Z,99.99
2023-06-24T09:30:26.079Z,99.99
2023-06-24T09:32:57.121Z,99.99
2023-06-24T09:35:28.679Z,99.99
2023-06-24T09:38:01.506Z,99.99
2023-06-24T09:40:31.815Z,99.99
2023-06-24T09:43:05.866Z,99.99
2023-06-24T09:45:36.854Z,99.99
2023-06-24T09:48:07.481Z,99.99
2023-06-24T09:50:37.270Z,99.99
2023-06-24T09:53:08.019Z,99.99
2023-06-24T09:55:45.867Z,99.99
2023-06-24T09:58:18.433Z,99.99
2023-06-24T10:00:49.225Z,99.99
2023-06-24T10:03:20.261Z,99.99
2023-06-24T10:05:52.443Z,99.99
2023-06-24T10:08:22.813Z,99.99
2023-06-24T10:10:53.221Z,99.99
2023-06-24T10:13:23.723Z,99.99
2023-06-24T10:15:54.179Z,99.99
2023-06-24T10:18:40.133Z,99.99
2023-06-24T10:21:11.611Z,99.99
2023-06-24T10:23:50.746Z,99.99
2023-06-24T10:26:31.608Z,99.99
2023-06-24T10:29:10.387Z,99.99
2023-06-24T10:31:43.479Z,99.99
2023-06-24T10:34:29.682Z,99.99
2023-06-24T10:37:05.868Z,99.99
2023-06-24T10:39:57.264Z,99.99
2023-06-24T10:42:37.435Z,99.99
2023-06-24T10:45:13.697Z,99.99
2023-06-24T10:47:46.211Z,99.99
2023-06-24T10:50:22.158Z,99.99
2023-06-24T10:52:58.380Z,99.99
2023-06-24T10:55:29.253Z,99.99
2023-06-24T10:58:14.437Z,99.99
2023-06-24T11:00:48.988Z,99.99
2023-06-24T11:03:24.314Z,99.99
2023-06-24T11:05:54.607Z,99.99
2023-06-24T11:08:26.898Z,99.99
2023-06-24T11:10:57.546Z,99.99
2023-06-24T11:13:28.732Z,99.99
2023-06-24T11:16:03.193Z,99.99
2023-06-24T11:18:42.991Z,99.99
2023-06-24T11:21:13.220Z,99.99
2023-06-24T11:23:44.096Z,99.99
2023-06-24T11:26:14.409Z,99.99
2023-06-24T11:28:44.614Z,99.99
2023-06-24T11:31:16.917Z,99.99
2023-06-24T11:33:51.521Z,99.99
2023-06-24T11:36:25.534Z,99.99
2023-06-24T11:38:55.882Z,99.99
2023-06-24T11:41:28.224Z,99.99
2023-06-24T11:44:01.470Z,99.99
2023-06-24T11:46:40.274Z,99.99
2023-06-24T11:49:11.981Z,99.99
2023-06-24T11:51:51.763Z,99.99
2023-06-24T11:54:23.038Z,99.99
2023-06-24T11:56:54.755Z,99.99
2023-06-24T11:59:29.829Z,99.99
2023-06-24T12:02:05.395Z,99.99
2023-06-24T12:04:39.283Z,99.99
2023-06-24T12:07:09.534Z,99.99
2023-06-24T12:09:41.086Z,99.99
2023-06-24T12:12:11.725Z,99.99
2023-06-24T12:14:42.177Z,99.99
2023-06-24T12:17:11.808Z,99.99
2023-06-24T12:19:41.567Z,99.99
2023-06-24T12:22:11.734Z,99.99
2023-06-24T12:24:41.861Z,99.99
2023-06-24T12:27:12.004Z,99.99
2023-06-24T12:29:42.958Z,99.99
2023-06-24T12:32:32.345Z,99.99
2023-06-24T12:35:02.600Z,99.99
2023-06-24T12:37:37.485Z,99.99
2023-06-24T12:40:08.522Z,99.99
2023-06-24T12:42:59.978Z,99.99
2023-06-24T12:45:30.090Z,99.99
2023-06-24T12:48:01.518Z,99.99
2023-06-24T12:50:34.105Z,99.99
2023-06-24T12:53:05.830Z,99.99
2023-06-24T12:55:35.988Z,99.99
2023-06-24T12:58:06.162Z,99.99
2023-06-24T13:00:36.604Z,99.99
2023-06-24T13:03:08.263Z,99.99
2023-06-24T13:05:38.417Z,99.99
2023-06-24T13:08:08.800Z,99.99
2023-06-24T13:10:38.492Z,99.99
2023-06-24T13:13:08.430Z,99.99
2023-06-24T13:15:38.589Z,99.99
2023-06-24T13:18:08.559Z,99.99
2023-06-24T13:20:38.466Z,99.99
2023-06-24T13:23:08.609Z,99.99
2023-06-24T13:25:39.598Z,99.99
2023-06-24T13:28:09.859Z,99.99
2023-06-24T13:30:40.285Z,99.99
2023-06-24T13:33:11.313Z,99.99
2023-06-24T13:35:41.507Z,99.99
2023-06-24T13:38:11.594Z,99.99
2023-06-24T13:40:41.747Z,99.99
2023-06-24T13:43:11.769Z,99.99
2023-06-24T13:45:43.096Z,99.99
2023-06-24T13:48:13.224Z,99.99
2023-06-24T13:50:43.029Z,99.27
2023-06-24T13:53:13.040Z,99.27
2023-06-24T13:55:43.540Z,99.63
2023-06-24T13:58:13.728Z,99.99
2023-06-24T14:00:43.954Z,99.99
2023-06-24T14:03:14.399Z,99.46
2023-06-24T14:05:44.368Z,99.23
2023-06-24T14:08:14.576Z,99.35
2023-06-24T14:10:44.749Z,98.30
2023-06-24T14:13:14.571Z,98.18
2023-06-24T14:15:44.786Z,98.25
2023-06-24T14:18:14.851Z,98.92
2023-06-24T14:20:45.483Z,97.92
2023-06-24T14:23:15.783Z,98.27
2023-06-24T14:25:45.489Z,98.57
2023-06-24T14:28:15.231Z,98.07
2023-06-24T14:30:45.694Z,97.63
2023-06-24T14:33:16.241Z,97.67
2023-06-24T14:35:46.829Z,98.07
2023-06-24T14:38:17.125Z,97.54
2023-06-24T14:40:48.900Z,96.41
2023-06-24T14:43:19.087Z,96.94
2023-06-24T14:45:49.307Z,96.79
2023-06-24T14:48:19.540Z,96.86
2023-06-24T14:50:49.731Z,96.32
2023-06-24T14:53:19.586Z,95.27
2023-06-24T14:55:50.109Z,96.11
2023-06-24T14:58:20.451Z,95.27
2023-06-24T15:00:50.182Z,93.55
2023-06-24T15:03:20.374Z,94.12
2023-06-24T15:05:50.169Z,93.78
2023-06-24T15:08:20.722Z,93.91
2023-06-24T15:10:52.063Z,95.75
2023-06-24T15:13:22.441Z,94.64
2023-06-24T15:15:54.324Z,95.10
2023-06-24T15:18:25.306Z,95.45
2023-06-24T15:20:56.524Z,96.01
2023-06-24T15:23:27.027Z,95.96
2023-06-24T15:25:57.197Z,95.62
2023-06-24T15:28:28.870Z,94.68
2023-06-24T15:30:59.005Z,94.59
2023-06-24T15:33:28.653Z,94.21
2023-06-24T15:35:59.958Z,94.16
2023-06-24T15:38:30.393Z,92.63
2023-06-24T15:41:00.660Z,92.58
2023-06-24T15:43:30.750Z,92.39
2023-06-24T15:46:00.691Z,91.47
2023-06-24T15:48:30.638Z,91.72
2023-06-24T15:51:01.896Z,92.33
2023-06-24T15:53:34.058Z,89.96
2023-06-24T15:56:04.557Z,89.71
2023-06-24T15:58:34.818Z,91.53
2023-06-24T16:01:04.892Z,90.31
2023-06-24T16:03:35.290Z,88.92
2023-06-24T16:06:06.772Z,88.52
2023-06-24T16:08:37.215Z,88.85
2023-06-24T16:11:07.606Z,89.68
2023-06-24T16:13:38.353Z,90.01
2023-06-24T16:16:10.888Z,90.41
2023-06-24T16:18:41.624Z,90.35
2023-06-24T16:21:11.792Z,89.90
2023-06-24T16:23:41.784Z,88.82
2023-06-24T16:26:12.313Z,88.62
2023-06-24T16:28:42.543Z,89.56
2023-06-24T16:31:13.089Z,89.62
2023-06-24T16:33:43.398Z,88.11
2023-06-24T16:36:15.016Z,88.34
2023-06-24T16:38:46.357Z,88.60
2023-06-24T16:41:16.516Z,88.86
2023-06-24T16:43:50.200Z,90.03
2023-06-24T16:46:20.567Z,87.94
2023-06-24T16:48:51.332Z,88.35
2023-06-24T16:51:22.264Z,88.52
2023-06-24T16:53:52.486Z,87.78
2023-06-24T16:56:22.584Z,86.70
2023-06-24T16:58:53.632Z,87.14
2023-06-24T17:01:43.366Z,82.73
2023-06-24T17:04:14.395Z,77.61
2023-06-24T17:06:44.769Z,76.87
2023-06-24T17:09:14.858Z,77.68
2023-06-24T17:11:44.516Z,76.69
2023-06-24T17:14:14.286Z,79.60
2023-06-24T17:16:43.924Z,84.00
2023-06-24T17:19:14.920Z,79.79
2023-06-24T17:21:45.205Z,80.11
2023-06-24T17:24:15.459Z,82.77
2023-06-24T17:26:45.581Z,83.92
2023-06-24T17:29:17.326Z,84.56
2023-06-24T17:31:47.504Z,80.74
2023-06-24T17:34:18.325Z,74.09
2023-06-24T17:36:48.441Z,71.00
2023-06-24T17:39:18.504Z,69.83
2023-06-24T17:41:48.688Z,68.47
2023-06-24T17:44:18.828Z,68.37
2023-06-24T17:46:48.725Z,69.67
2023-06-24T17:49:18.571Z,70.54
2023-06-24T17:51:48.509Z,70.92
2023-06-24T17:54:18.679Z,71.42
2023-06-24T17:56:48.763Z,77.33
2023-06-24T17:59:18.683Z,80.97
2023-06-24T18:01:49.276Z,83.07
2023-06-24T18:04:20.021Z,82.17
2023-06-24T18:06:50.207Z,82.04
2023-06-24T18:09:21.771Z,82.80
2023-06-24T18:11:51.949Z,81.40
2023-06-24T18:14:21.979Z,83.23
2023-06-24T18:16:54.172Z,87.77
2023-06-24T18:19:24.345Z,85.23
2023-06-24T18:21:54.439Z,84.87
2023-06-24T18:24:25.316Z,86.58
2023-06-24T18:26:56.489Z,87.80
2023-06-24T18:29:26.644Z,87.95
2023-06-24T18:31:56.315Z,87.33
2023-06-24T18:34:26.899Z,87.07
2023-06-24T18:36:57.407Z,87.39
2023-06-24T18:39:28.873Z,88.09
2023-06-24T18:41:59.079Z,88.33
2023-06-24T18:44:29.122Z,89.30
2023-06-24T18:46:59.363Z,88.84
2023-06-24T18:49:29.475Z,88.88
2023-06-24T18:51:59.117Z,88.57
2023-06-24T18:54:29.118Z,90.04
2023-06-24T18:56:58.716Z,90.70
2023-06-24T18:59:28.606Z,90.86
2023-06-24T19:01:58.712Z,90.90
2023-06-24T19:04:29.534Z,91.15
2023-06-24T19:07:00.947Z,91.64
2023-06-24T19:09:30.567Z,91.93
2023-06-24T19:12:00.319Z,92.36
2023-06-24T19:14:31.134Z,92.78
2023-06-24T19:17:01.208Z,92.17
2023-06-24T19:19:31.350Z,92.08
2023-06-24T19:22:05.508Z,92.23
2023-06-24T19:24:38.503Z,91.76
2023-06-24T19:27:08.721Z,92.33
2023-06-24T19:29:38.642Z,93.17
2023-06-24T19:32:08.647Z,93.23
2023-06-24T19:34:39.648Z,93.38
2023-06-24T19:37:09.776Z,93.23
2023-06-24T19:39:39.710Z,93.35
2023-06-24T19:42:09.613Z,92.97
2023-06-24T19:44:39.582Z,92.35
2023-06-24T19:47:09.547Z,93.24
2023-06-24T19:49:55.591Z,92.95
2023-06-24T19:52:25.798Z,92.92
2023-06-24T19:54:55.807Z,93.37
2023-06-24T19:57:26.607Z,93.65
2023-06-24T19:59:56.698Z,93.88
2023-06-24T20:02:26.646Z,93.76
2023-06-24T20:04:56.693Z,94.13
2023-06-24T20:07:26.625Z,93.77
2023-06-24T20:09:56.776Z,94.54
2023-06-24T20:12:26.680Z,94.19
2023-06-24T20:14:56.613Z,94.52
2023-06-24T20:17:26.560Z,94.10
2023-06-24T20:19:59.266Z,93.95
2023-06-24T20:22:29.426Z,94.35
2023-06-24T20:24:59.816Z,93.98
2023-06-24T20:27:30.400Z,94.24
2023-06-24T20:30:19.707Z,94.41
2023-06-24T20:32:49.313Z,94.97
2023-06-24T20:35:19.133Z,94.70
2023-06-24T20:37:49.286Z,95.34
2023-06-24T20:40:19.702Z,95.09
2023-06-24T20:42:49.839Z,95.64
2023-06-24T20:45:20.856Z,95.45
2023-06-24T20:47:51.029Z,95.68
2023-06-24T20:50:20.767Z,95.48
2023-06-24T20:52:50.561Z,95.95
2023-06-24T20:55:21.036Z,95.95
2023-06-24T20:57:51.141Z,96.47
2023-06-24T21:00:21.511Z,96.61
2023-06-24T21:02:51.673Z,96.76
2023-06-24T21:05:21.872Z,96.80
2023-06-24T21:07:55.048Z,96.36
2023-06-24T21:10:25.276Z,96.37
2023-06-24T21:12:58.527Z,96.76
2023-06-24T21:15:29.259Z,97.03
2023-06-24T21:17:59.390Z,96.78
2023-06-24T21:20:29.731Z,97.20
2023-06-24T21:22:59.344Z,97.28
2023-06-24T21:25:29.358Z,97.85
2023-06-24T21:27:59.486Z,97.50
2023-06-24T21:30:29.705Z,97.28
2023-06-24T21:32:59.897Z,97.23
2023-06-24T21:35:31.345Z,97.49
2023-06-24T21:38:01.062Z,97.37
2023-06-24T21:40:31.184Z,97.15
2023-06-24T21:43:02.168Z,97.48
2023-06-24T21:45:33.533Z,97.33
2023-06-24T21:48:05.688Z,97.43
2023-06-24T21:50:37.338Z,97.23
2023-06-24T21:53:07.644Z,97.41
2023-06-24T21:55:37.516Z,97.30
2023-06-24T21:58:07.701Z,97.01
2023-06-24T22:00:38.084Z,96.78
2023-06-24T22:03:08.890Z,97.14
2023-06-24T22:05:39.469Z,97.25
2023-06-24T22:08:09.632Z,97.49
2023-06-24T22:10:40.546Z,97.65
2023-06-24T22:13:29.710Z,97.71
2023-06-24T22:15:59.870Z,97.41
2023-06-24T22:18:30.380Z,97.50
2023-06-24T22:21:00.521Z,97.81
2023-06-24T22:23:30.654Z,97.47
2023-06-24T22:26:01.020Z,97.53
2023-06-24T22:28:31.178Z,97.66
2023-06-24T22:31:01.340Z,97.65
2023-06-24T22:33:31.010Z,97.82
2023-06-24T22:36:01.015Z,97.94
2023-06-24T22:38:31.164Z,97.92
2023-06-24T22:41:01.394Z,98.32
2023-06-24T22:43:31.641Z,98.55
2023-06-24T22:46:01.628Z,98.47
2023-06-24T22:48:31.955Z,98.37
2023-06-24T22:51:02.797Z,98.19
2023-06-24T22:53:32.842Z,98.15
2023-06-24T22:56:02.794Z,97.45
2023-06-24T22:58:32.731Z,97.40
2023-06-24T23:01:02.594Z,97.66
2023-06-24T23:03:33.128Z,98.05
2023-06-24T23:06:03.735Z,98.35
2023-06-24T23:08:35.601Z,98.48
2023-06-24T23:11:06.162Z,98.55
2023-06-24T23:13:36.806Z,98.60
2023-06-24T23:16:07.327Z,98.73
2023-06-24T23:18:39.086Z,99.07
2023-06-24T23:21:09.925Z,98.87
2023-06-24T23:23:40.339Z,98.83
2023-06-24T23:26:18.301Z,98.44
2023-06-24T23:28:49.186Z,98.12
2023-06-24T23:31:22.422Z,97.99
2023-06-24T23:33:52.920Z,98.12
2023-06-24T23:36:23.571Z,98.33
2023-06-24T23:38:53.860Z,98.46
2023-06-24T23:41:23.998Z,98.63
2023-06-24T23:43:54.389Z,98.65
2023-06-24T23:46:25.534Z,98.87
2023-06-24T23:48:55.626Z,99.19
2023-06-24T23:51:25.512Z,99.24
2023-06-24T23:53:56.606Z,99.50
2023-06-24T23:56:26.928Z,99.55
2023-06-24T23:58:57.114Z,99.70
